createdAt,value
2022-12-15T03:24:11.313Z,-3.20
2022-12-15T03:29:52.094Z,-3.20
2022-12-15T03:48:29.398Z,-3.20
2022-12-15T06:21:27.644Z,-3.60
2022-12-15T06:26:33.239Z,-3.60
2022-12-15T06:31:35.965Z,-3.60
2022-12-15T06:36:39.125Z,-3.70
2022-12-15T06:41:41.531Z,-3.60
2022-12-15T06:46:43.781Z,-3.60
2022-12-15T06:51:45.635Z,-3.60
2022-12-15T06:56:49.846Z,-3.60
2022-12-15T07:01:52.334Z,-3.60
2022-12-15T07:06:57.376Z,-3.60
2022-12-15T07:11:59.457Z,-3.60
2022-12-15T07:17:01.271Z,-3.60
2022-12-15T07:22:03.358Z,-3.70
2022-12-15T07:27:05.332Z,-3.80
2022-12-15T07:32:07.259Z,-3.80
2022-12-15T07:37:09.107Z,-3.80
2022-12-15T07:42:10.992Z,-3.90
2022-12-15T07:47:12.815Z,-3.90
2022-12-15T07:52:14.693Z,-3.90
2022-12-15T07:57:16.711Z,-4.00
2022-12-15T08:02:18.729Z,-4.00
2022-12-15T08:07:20.759Z,-4.00
2022-12-15T08:12:23.095Z,-4.00
2022-12-15T08:17:25.279Z,-4.00
2022-12-15T08:22:27.137Z,-4.00
2022-12-15T08:27:28.988Z,-3.90
2022-12-15T08:32:30.922Z,-3.90
2022-12-15T08:37:32.760Z,-3.90
2022-12-15T08:42:35.407Z,-3.80
2022-12-15T08:47:37.241Z,-3.80
2022-12-15T08:52:55.264Z,-3.80
2022-12-15T08:58:02.735Z,-3.70
2022-12-15T09:03:04.778Z,-3.70
2022-12-15T09:08:07.017Z,-3.60
2022-12-15T09:13:09.006Z,-3.60
2022-12-15T09:18:10.903Z,-3.60
2022-12-15T09:23:12.696Z,-3.50
2022-12-15T09:28:15.064Z,-3.30
2022-12-15T09:33:17.075Z,-3.20
2022-12-15T09:38:20.971Z,-3.20
2022-12-15T09:43:46.621Z,-3.20
2022-12-15T09:48:48.186Z,-3.20
2022-12-15T09:53:54.994Z,-3.10
2022-12-15T09:59:04.289Z,-3.00
2022-12-15T10:04:24.161Z,-3.00
2022-12-15T10:09:30.366Z,-2.90
2022-12-15T10:14:45.599Z,-2.80
2022-12-15T10:20:20.446Z,-2.80
2022-12-15T10:25:29.697Z,-2.70
2022-12-15T10:31:06.458Z,-2.60
2022-12-15T10:36:13.426Z,-2.50
2022-12-15T10:41:17.684Z,-2.40
2022-12-15T10:46:26.493Z,-2.30
2022-12-15T10:51:53.594Z,-2.20
2022-12-15T10:56:56.534Z,-2.10
2022-12-15T11:02:35.155Z,-2.00
2022-12-15T11:07:44.286Z,-1.80
2022-12-15T11:13:16.532Z,-1.70
2022-12-15T11:18:38.221Z,-1.50
2022-12-15T11:23:55.261Z,-1.40
2022-12-15T11:29:01.894Z,-1.30
2022-12-15T11:34:08.572Z,-1.10
2022-12-15T11:39:18.791Z,-1.00
2022-12-15T11:44:24.551Z,-0.80
2022-12-15T11:49:26.362Z,-0.60
2022-12-15T11:54:57.182Z,-0.50
2022-12-15T12:00:04.672Z,-0.40
2022-12-15T12:05:15.594Z,-0.30
2022-12-15T12:10:38.489Z,-0.20
2022-12-15T12:15:59.208Z,-0.10
2022-12-15T12:21:07.731Z,0.00
2022-12-15T12:26:16.071Z,0.10
2022-12-15T12:31:27.050Z,0.20
2022-12-15T12:36:29.033Z,0.30
2022-12-15T12:41:52.540Z,0.40
2022-12-15T12:46:55.780Z,0.50
2022-12-15T12:52:01.600Z,0.60
2022-12-15T12:57:12.880Z,0.70
2022-12-15T13:02:14.974Z,0.80
2022-12-15T13:07:32.533Z,0.90
2022-12-15T13:12:54.935Z,1.00
2022-12-15T13:18:17.371Z,1.00
2022-12-15T13:23:22.304Z,1.20
2022-12-15T13:28:36.481Z,1.30
2022-12-15T13:34:40.106Z,1.40
2022-12-15T13:39:54.250Z,1.40
2022-12-15T13:45:05.659Z,1.50
2022-12-15T13:50:13.405Z,1.50
2022-12-15T13:55:25.724Z,1.50
2022-12-15T14:00:29.652Z,1.50
2022-12-15T14:05:31.527Z,1.50
2022-12-15T14:10:33.339Z,1.40
2022-12-15T14:15:35.717Z,1.40
2022-12-15T14:20:41.150Z,1.40
2022-12-15T14:25:53.102Z,1.40
2022-12-15T14:30:58.011Z,1.40
2022-12-15T14:36:01.722Z,1.50
2022-12-15T14:41:04.417Z,1.50
2022-12-15T14:46:08.233Z,1.60
2022-12-15T14:51:11.931Z,1.60
2022-12-15T14:56:27.673Z,1.60
2022-12-15T15:01:41.730Z,1.60
2022-12-15T15:06:49.046Z,1.60
2022-12-15T15:12:09.530Z,1.50
2022-12-15T15:17:16.915Z,1.40
2022-12-15T15:22:36.471Z,1.40
2022-12-15T15:27:40.089Z,1.30
2022-12-15T15:32:54.091Z,1.20
2022-12-15T15:38:02.711Z,1.10
2022-12-15T15:43:10.947Z,0.90
2022-12-15T15:48:18.044Z,0.90
2022-12-15T15:53:22.357Z,0.70
2022-12-15T15:58:24.236Z,0.60
2022-12-15T16:03:28.371Z,0.50
2022-12-15T16:08:37.124Z,0.40
2022-12-15T16:13:39.465Z,0.20
2022-12-15T16:18:41.354Z,0.20
2022-12-15T16:23:45.145Z,0.20
2022-12-15T16:28:47.041Z,0.10
2022-12-15T16:33:49.000Z,0.10
2022-12-15T16:38:51.091Z,0.00
2022-12-15T16:43:52.949Z,0.00
2022-12-15T16:48:55.096Z,-0.10
2022-12-15T16:53:57.027Z,-0.10
2022-12-15T16:59:30.837Z,-0.10
2022-12-15T17:04:21.587Z,-0.20
2022-12-15T17:09:24.741Z,-0.30
2022-12-15T17:14:26.613Z,-0.30
2022-12-15T17:19:28.930Z,-0.30
2022-12-15T17:24:30.855Z,-0.30
2022-12-15T17:29:33.008Z,-0.40
2022-12-15T17:34:34.998Z,-0.40
2022-12-15T17:39:37.204Z,-0.50
2022-12-15T17:44:40.252Z,-0.60
2022-12-15T17:49:42.593Z,-0.60
2022-12-15T17:54:44.492Z,-0.60
2022-12-15T17:59:46.627Z,-0.60
2022-12-15T18:04:48.501Z,-0.60
2022-12-15T18:09:51.428Z,-0.60
2022-12-15T18:14:54.580Z,-0.70
2022-12-15T18:19:56.548Z,-0.70
2022-12-15T18:24:58.471Z,-0.70
2022-12-15T18:30:00.438Z,-0.80
2022-12-15T18:35:02.547Z,-0.80
2022-12-15T18:40:05.383Z,-0.90
2022-12-15T18:45:19.861Z,-0.90
2022-12-15T18:50:26.518Z,-0.90
2022-12-15T18:55:31.092Z,-1.00
2022-12-15T19:00:34.476Z,-1.00
2022-12-15T19:05:37.406Z,-1.00
2022-12-15T19:10:44.185Z,-1.10
2022-12-15T19:15:46.530Z,-1.10
2022-12-15T19:21:06.863Z,-1.20
2022-12-15T19:26:10.886Z,-1.20
2022-12-15T19:31:12.983Z,-1.20
2022-12-15T19:36:25.928Z,-1.20
2022-12-15T19:41:27.875Z,-1.30
2022-12-15T19:46:29.890Z,-1.30
2022-12-15T19:51:32.064Z,-1.30
2022-12-15T19:56:34.385Z,-1.30
2022-12-15T20:01:36.410Z,-1.30
2022-12-15T20:06:38.838Z,-1.30
2022-12-15T20:11:40.921Z,-1.30
2022-12-15T20:16:45.861Z,-1.30
2022-12-15T20:21:47.863Z,-1.30
2022-12-15T20:26:49.820Z,-1.20
2022-12-15T20:31:51.828Z,-1.20
2022-12-15T20:36:53.974Z,-1.20
2022-12-15T20:41:56.710Z,-1.20
2022-12-15T20:46:58.506Z,-1.10
2022-12-15T20:52:00.467Z,-1.10
2022-12-15T20:57:02.317Z,-1.10
2022-12-15T21:02:21.478Z,-1.00
2022-12-15T21:07:23.603Z,-1.00
2022-12-15T21:12:27.551Z,-1.00
2022-12-15T21:17:33.001Z,-1.00
2022-12-15T21:22:36.250Z,-1.00
2022-12-15T21:27:38.157Z,-0.90
2022-12-15T21:32:39.971Z,-0.90
2022-12-15T21:37:43.574Z,-0.80
2022-12-15T21:42:45.641Z,-0.80
2022-12-15T21:48:07.366Z,-0.80
2022-12-15T21:53:16.008Z,-0.80
2022-12-15T21:58:22.648Z,-0.70
2022-12-15T22:03:24.614Z,-0.80
2022-12-15T22:08:26.473Z,-0.90
2022-12-15T22:13:28.393Z,-0.90
2022-12-15T22:18:31.088Z,-0.90
2022-12-15T22:23:33.601Z,-1.00
2022-12-15T22:28:35.781Z,-1.10
2022-12-15T22:33:37.861Z,-1.10
2022-12-15T22:38:39.811Z,-1.10
2022-12-15T22:43:43.804Z,-1.10
2022-12-15T22:48:49.539Z,-1.10
2022-12-15T22:53:52.265Z,-1.10
2022-12-15T22:59:05.204Z,-1.20
2022-12-15T23:04:07.162Z,-1.20
2022-12-15T23:09:09.344Z,-1.20
2022-12-15T23:14:16.056Z,-1.20
2022-12-15T23:19:24.024Z,-1.20
2022-12-15T23:24:28.549Z,-1.20
2022-12-15T23:29:30.473Z,-1.20
2022-12-15T23:34:32.594Z,-1.20
2022-12-15T23:39:34.419Z,-1.30
2022-12-15T23:44:37.337Z,-1.30
2022-12-15T23:49:39.360Z,-1.30
2022-12-15T23:54:41.172Z,-1.30
2022-12-15T23:59:43.045Z,-1.30
